sensor_id;sensor_type;location;lat;lon;timestamp;P1;durP1;ratioP1;P2;durP2;ratioP2
57295;SDS011;43146;50.976;18.216;2022-11-20T00:00:50;149.80;;;38.10;;
57295;SDS011;43146;50.976;18.216;2022-11-20T00:03:16;231.30;;;51.80;;
57295;SDS011;43146;50.976;18.216;2022-11-20T00:05:42;197.10;;;44.30;;
57295;SDS011;43146;50.976;18.216;2022-11-20T00:08:08;127.80;;;35.80;;
57295;SDS011;43146;50.976;18.216;2022-11-20T00:10:37;83.90;;;32.70;;
57295;SDS011;43146;50.976;18.216;2022-11-20T00:13:04;72.60;;;29.80;;
57295;SDS011;43146;50.976;18.216;2022-11-20T00:15:30;81.70;;;34.50;;
57295;SDS011;43146;50.976;18.216;2022-11-20T00:17:55;80.10;;;31.40;;
57295;SDS011;43146;50.976;18.216;2022-11-20T00:20:21;81.80;;;32.10;;
57295;SDS011;43146;50.976;18.216;2022-11-20T00:22:47;70.50;;;26.50;;
57295;SDS011;43146;50.976;18.216;2022-11-20T00:25:13;68.40;;;26.30;;
57295;SDS011;43146;50.976;18.216;2022-11-20T00:27:38;75.20;;;27.60;;
57295;SDS011;43146;50.976;18.216;2022-11-20T00:30:04;72.40;;;25.40;;
57295;SDS011;43146;50.976;18.216;2022-11-20T00:32:30;70.70;;;25.90;;
57295;SDS011;43146;50.976;18.216;2022-11-20T00:34:56;65.40;;;26.10;;
57295;SDS011;43146;50.976;18.216;2022-11-20T00:37:21;65.50;;;24.60;;
57295;SDS011;43146;50.976;18.216;2022-11-20T00:39:47;67.00;;;24.80;;
57295;SDS011;43146;50.976;18.216;2022-11-20T00:42:12;62.20;;;23.50;;
57295;SDS011;43146;50.976;18.216;2022-11-20T00:44:38;69.90;;;25.00;;
57295;SDS011;43146;50.976;18.216;2022-11-20T00:47:04;62.10;;;25.00;;
57295;SDS011;43146;50.976;18.216;2022-11-20T00:49:29;76.90;;;26.60;;
57295;SDS011;43146;50.976;18.216;2022-11-20T00:51:55;68.70;;;27.80;;
57295;SDS011;43146;50.976;18.216;2022-11-20T00:54:20;78.60;;;29.00;;
57295;SDS011;43146;50.976;18.216;2022-11-20T00:56:46;89.90;;;30.70;;
57295;SDS011;43146;50.976;18.216;2022-11-20T00:59:12;82.80;;;30.10;;
57295;SDS011;43146;50.976;18.216;2022-11-20T01:01:38;77.60;;;31.40;;
57295;SDS011;43146;50.976;18.216;2022-11-20T01:04:04;85.10;;;29.20;;
57295;SDS011;43146;50.976;18.216;2022-11-20T01:06:30;80.00;;;25.80;;
57295;SDS011;43146;50.976;18.216;2022-11-20T01:08:58;75.00;;;26.10;;
57295;SDS011;43146;50.976;18.216;2022-11-20T01:11:26;69.50;;;24.80;;
57295;SDS011;43146;50.976;18.216;2022-11-20T01:13:53;66.00;;;23.90;;
57295;SDS011;43146;50.976;18.216;2022-11-20T01:16:28;76.70;;;28.20;;
57295;SDS011;43146;50.976;18.216;2022-11-20T01:18:57;77.00;;;32.20;;
57295;SDS011;43146;50.976;18.216;2022-11-20T01:21:25;86.60;;;28.60;;
57295;SDS011;43146;50.976;18.216;2022-11-20T01:23:52;73.60;;;27.00;;
57295;SDS011;43146;50.976;18.216;2022-11-20T01:26:19;66.10;;;25.40;;
57295;SDS011;43146;50.976;18.216;2022-11-20T01:28:47;64.30;;;27.10;;
57295;SDS011;43146;50.976;18.216;2022-11-20T01:31:15;66.40;;;25.80;;
57295;SDS011;43146;50.976;18.216;2022-11-20T01:33:49;71.00;;;25.50;;
57295;SDS011;43146;50.976;18.216;2022-11-20T01:36:16;63.00;;;24.90;;
57295;SDS011;43146;50.976;18.216;2022-11-20T01:38:43;68.20;;;24.60;;
57295;SDS011;43146;50.976;18.216;2022-11-20T01:41:10;61.80;;;21.70;;
57295;SDS011;43146;50.976;18.216;2022-11-20T01:43:56;60.90;;;25.20;;
57295;SDS011;43146;50.976;18.216;2022-11-20T01:46:21;65.00;;;29.10;;
57295;SDS011;43146;50.976;18.216;2022-11-20T01:51:29;81.60;;;27.70;;
57295;SDS011;43146;50.976;18.216;2022-11-20T01:54:00;64.00;;;24.30;;
57295;SDS011;43146;50.976;18.216;2022-11-20T01:56:28;62.50;;;24.40;;
57295;SDS011;43146;50.976;18.216;2022-11-20T01:58:58;61.90;;;24.40;;
57295;SDS011;43146;50.976;18.216;2022-11-20T02:01:26;62.50;;;22.50;;
57295;SDS011;43146;50.976;18.216;2022-11-20T02:03:51;65.50;;;23.40;;
57295;SDS011;43146;50.976;18.216;2022-11-20T02:06:35;59.70;;;23.10;;
57295;SDS011;43146;50.976;18.216;2022-11-20T02:09:02;68.70;;;24.30;;
57295;SDS011;43146;50.976;18.216;2022-11-20T02:11:29;62.20;;;21.80;;
57295;SDS011;43146;50.976;18.216;2022-11-20T02:13:55;63.80;;;22.10;;
57295;SDS011;43146;50.976;18.216;2022-11-20T02:18:55;69.90;;;25.30;;
57295;SDS011;43146;50.976;18.216;2022-11-20T02:21:30;64.50;;;23.70;;
57295;SDS011;43146;50.976;18.216;2022-11-20T02:24:18;74.10;;;26.30;;
57295;SDS011;43146;50.976;18.216;2022-11-20T02:26:51;69.80;;;24.90;;
57295;SDS011;43146;50.976;18.216;2022-11-20T02:29:24;80.40;;;29.60;;
57295;SDS011;43146;50.976;18.216;2022-11-20T02:31:52;71.90;;;25.40;;
57295;SDS011;43146;50.976;18.216;2022-11-20T02:34:19;62.80;;;22.50;;
57295;SDS011;43146;50.976;18.216;2022-11-20T02:36:45;56.70;;;21.40;;
57295;SDS011;43146;50.976;18.216;2022-11-20T02:39:11;58.50;;;21.10;;
57295;SDS011;43146;50.976;18.216;2022-11-20T02:41:38;57.10;;;21.70;;
57295;SDS011;43146;50.976;18.216;2022-11-20T02:44:04;56.10;;;21.20;;
57295;SDS011;43146;50.976;18.216;2022-11-20T02:46:30;53.00;;;20.90;;
57295;SDS011;43146;50.976;18.216;2022-11-20T02:48:57;59.50;;;21.50;;
57295;SDS011;43146;50.976;18.216;2022-11-20T02:51:22;58.20;;;21.80;;
57295;SDS011;43146;50.976;18.216;2022-11-20T02:53:49;66.40;;;23.80;;
57295;SDS011;43146;50.976;18.216;2022-11-20T02:56:14;64.90;;;24.10;;
57295;SDS011;43146;50.976;18.216;2022-11-20T02:58:41;70.00;;;24.40;;
57295;SDS011;43146;50.976;18.216;2022-11-20T03:01:06;63.00;;;23.90;;
57295;SDS011;43146;50.976;18.216;2022-11-20T03:03:32;60.50;;;23.20;;
57295;SDS011;43146;50.976;18.216;2022-11-20T03:06:00;72.90;;;27.00;;
57295;SDS011;43146;50.976;18.216;2022-11-20T03:08:26;69.10;;;25.80;;
57295;SDS011;43146;50.976;18.216;2022-11-20T03:10:51;69.70;;;27.00;;
57295;SDS011;43146;50.976;18.216;2022-11-20T03:13:16;62.00;;;22.50;;
57295;SDS011;43146;50.976;18.216;2022-11-20T03:15:42;66.80;;;26.40;;
57295;SDS011;43146;50.976;18.216;2022-11-20T03:18:07;68.50;;;25.40;;
57295;SDS011;43146;50.976;18.216;2022-11-20T03:20:33;74.70;;;26.70;;
57295;SDS011;43146;50.976;18.216;2022-11-20T03:22:59;68.80;;;26.50;;
57295;SDS011;43146;50.976;18.216;2022-11-20T03:25:25;72.00;;;26.20;;
57295;SDS011;43146;50.976;18.216;2022-11-20T03:27:50;75.10;;;27.60;;
57295;SDS011;43146;50.976;18.216;2022-11-20T03:30:16;72.20;;;25.60;;
57295;SDS011;43146;50.976;18.216;2022-11-20T03:32:41;76.60;;;26.00;;
57295;SDS011;43146;50.976;18.216;2022-11-20T03:35:07;68.40;;;24.10;;
57295;SDS011;43146;50.976;18.216;2022-11-20T03:37:33;70.00;;;25.50;;
57295;SDS011;43146;50.976;18.216;2022-11-20T03:39:59;72.50;;;25.50;;
57295;SDS011;43146;50.976;18.216;2022-11-20T03:42:24;64.40;;;24.10;;
57295;SDS011;43146;50.976;18.216;2022-11-20T03:45:08;70.30;;;23.80;;
57295;SDS011;43146;50.976;18.216;2022-11-20T03:47:34;73.50;;;25.30;;
57295;SDS011;43146;50.976;18.216;2022-11-20T03:49:59;69.60;;;26.40;;
57295;SDS011;43146;50.976;18.216;2022-11-20T03:52:25;84.00;;;30.50;;
57295;SDS011;43146;50.976;18.216;2022-11-20T03:54:50;79.50;;;29.80;;
57295;SDS011;43146;50.976;18.216;2022-11-20T03:57:16;79.70;;;30.50;;
57295;SDS011;43146;50.976;18.216;2022-11-20T03:59:41;78.80;;;29.10;;
57295;SDS011;43146;50.976;18.216;2022-11-20T04:02:07;74.10;;;28.30;;
57295;SDS011;43146;50.976;18.216;2022-11-20T04:04:32;69.80;;;26.70;;
57295;SDS011;43146;50.976;18.216;2022-11-20T04:06:58;69.00;;;27.90;;
57295;SDS011;43146;50.976;18.216;2022-11-20T04:09:24;75.30;;;30.00;;
57295;SDS011;43146;50.976;18.216;2022-11-20T04:11:49;74.70;;;29.60;;
57295;SDS011;43146;50.976;18.216;2022-11-20T04:14:15;77.00;;;29.10;;
57295;SDS011;43146;50.976;18.216;2022-11-20T04:16:41;77.70;;;30.80;;
57295;SDS011;43146;50.976;18.216;2022-11-20T04:19:09;72.80;;;27.60;;
57295;SDS011;43146;50.976;18.216;2022-11-20T04:21:37;74.50;;;27.00;;
57295;SDS011;43146;50.976;18.216;2022-11-20T04:24:02;75.40;;;27.50;;
57295;SDS011;43146;50.976;18.216;2022-11-20T04:26:28;82.30;;;30.20;;
57295;SDS011;43146;50.976;18.216;2022-11-20T04:28:55;91.40;;;32.30;;
57295;SDS011;43146;50.976;18.216;2022-11-20T04:31:22;81.90;;;32.40;;
57295;SDS011;43146;50.976;18.216;2022-11-20T04:33:49;80.50;;;32.00;;
57295;SDS011;43146;50.976;18.216;2022-11-20T04:36:19;75.90;;;31.50;;
57295;SDS011;43146;50.976;18.216;2022-11-20T04:38:52;92.50;;;36.60;;
57295;SDS011;43146;50.976;18.216;2022-11-20T04:41:19;82.80;;;32.30;;
57295;SDS011;43146;50.976;18.216;2022-11-20T04:43:48;86.90;;;34.50;;
57295;SDS011;43146;50.976;18.216;2022-11-20T04:46:15;87.00;;;33.10;;
57295;SDS011;43146;50.976;18.216;2022-11-20T04:48:41;86.70;;;34.60;;
57295;SDS011;43146;50.976;18.216;2022-11-20T04:51:07;95.10;;;34.70;;
57295;SDS011;43146;50.976;18.216;2022-11-20T04:53:32;94.20;;;35.30;;
57295;SDS011;43146;50.976;18.216;2022-11-20T04:56:05;90.20;;;35.30;;
57295;SDS011;43146;50.976;18.216;2022-11-20T04:58:32;88.80;;;34.80;;
57295;SDS011;43146;50.976;18.216;2022-11-20T05:01:02;89.80;;;34.70;;
57295;SDS011;43146;50.976;18.216;2022-11-20T05:03:28;96.60;;;37.30;;
57295;SDS011;43146;50.976;18.216;2022-11-20T05:05:54;94.00;;;38.90;;
57295;SDS011;43146;50.976;18.216;2022-11-20T05:08:19;96.40;;;35.80;;
57295;SDS011;43146;50.976;18.216;2022-11-20T05:10:45;91.40;;;32.40;;
57295;SDS011;43146;50.976;18.216;2022-11-20T05:13:11;87.20;;;35.60;;
57295;SDS011;43146;50.976;18.216;2022-11-20T05:15:36;93.90;;;38.10;;
57295;SDS011;43146;50.976;18.216;2022-11-20T05:18:02;103.60;;;38.20;;
57295;SDS011;43146;50.976;18.216;2022-11-20T05:20:27;94.90;;;35.80;;
57295;SDS011;43146;50.976;18.216;2022-11-20T05:22:56;99.30;;;36.80;;
57295;SDS011;43146;50.976;18.216;2022-11-20T05:25:22;103.10;;;36.90;;
57295;SDS011;43146;50.976;18.216;2022-11-20T05:27:48;97.90;;;34.60;;
57295;SDS011;43146;50.976;18.216;2022-11-20T05:30:14;102.50;;;39.10;;
57295;SDS011;43146;50.976;18.216;2022-11-20T05:32:40;94.40;;;34.40;;
57295;SDS011;43146;50.976;18.216;2022-11-20T05:35:05;98.40;;;36.70;;
57295;SDS011;43146;50.976;18.216;2022-11-20T05:37:32;111.50;;;38.90;;
57295;SDS011;43146;50.976;18.216;2022-11-20T05:39:57;99.10;;;35.70;;
57295;SDS011;43146;50.976;18.216;2022-11-20T05:42:23;98.60;;;36.40;;
57295;SDS011;43146;50.976;18.216;2022-11-20T05:47:27;111.20;;;39.90;;
57295;SDS011;43146;50.976;18.216;2022-11-20T05:49:56;105.00;;;39.30;;
57295;SDS011;43146;50.976;18.216;2022-11-20T05:52:21;102.10;;;38.80;;
57295;SDS011;43146;50.976;18.216;2022-11-20T05:54:47;98.50;;;37.60;;
57295;SDS011;43146;50.976;18.216;2022-11-20T05:57:13;108.90;;;39.70;;
57295;SDS011;43146;50.976;18.216;2022-11-20T05:59:38;109.20;;;43.70;;
57295;SDS011;43146;50.976;18.216;2022-11-20T06:02:04;108.60;;;39.50;;
57295;SDS011;43146;50.976;18.216;2022-11-20T06:04:30;106.60;;;38.00;;
57295;SDS011;43146;50.976;18.216;2022-11-20T06:06:55;106.90;;;40.70;;
57295;SDS011;43146;50.976;18.216;2022-11-20T06:09:20;110.00;;;40.10;;
57295;SDS011;43146;50.976;18.216;2022-11-20T06:11:46;116.20;;;41.90;;
57295;SDS011;43146;50.976;18.216;2022-11-20T06:14:11;113.10;;;43.00;;
57295;SDS011;43146;50.976;18.216;2022-11-20T06:16:37;110.90;;;40.00;;
57295;SDS011;43146;50.976;18.216;2022-11-20T06:19:02;113.10;;;39.90;;
57295;SDS011;43146;50.976;18.216;2022-11-20T06:21:28;115.70;;;41.60;;
57295;SDS011;43146;50.976;18.216;2022-11-20T06:23:54;102.80;;;38.30;;
57295;SDS011;43146;50.976;18.216;2022-11-20T06:26:20;110.10;;;40.80;;
57295;SDS011;43146;50.976;18.216;2022-11-20T06:28:47;107.70;;;38.30;;
57295;SDS011;43146;50.976;18.216;2022-11-20T06:31:14;105.50;;;40.00;;
57295;SDS011;43146;50.976;18.216;2022-11-20T06:33:40;102.10;;;36.80;;
57295;SDS011;43146;50.976;18.216;2022-11-20T06:36:07;114.50;;;41.00;;
57295;SDS011;43146;50.976;18.216;2022-11-20T06:38:32;114.00;;;38.00;;
57295;SDS011;43146;50.976;18.216;2022-11-20T06:40:58;105.10;;;40.00;;
57295;SDS011;43146;50.976;18.216;2022-11-20T06:43:24;111.90;;;41.50;;
57295;SDS011;43146;50.976;18.216;2022-11-20T06:45:54;132.70;;;56.30;;
57295;SDS011;43146;50.976;18.216;2022-11-20T06:48:20;116.20;;;49.20;;
57295;SDS011;43146;50.976;18.216;2022-11-20T06:50:46;109.30;;;44.10;;
57295;SDS011;43146;50.976;18.216;2022-11-20T06:53:12;110.60;;;46.60;;
57295;SDS011;43146;50.976;18.216;2022-11-20T06:55:41;115.30;;;48.10;;
57295;SDS011;43146;50.976;18.216;2022-11-20T06:58:07;113.60;;;46.30;;
57295;SDS011;43146;50.976;18.216;2022-11-20T07:00:33;112.20;;;43.70;;
57295;SDS011;43146;50.976;18.216;2022-11-20T07:03:02;120.60;;;43.10;;
57295;SDS011;43146;50.976;18.216;2022-11-20T07:05:28;109.40;;;44.60;;
57295;SDS011;43146;50.976;18.216;2022-11-20T07:07:55;133.80;;;56.40;;
57295;SDS011;43146;50.976;18.216;2022-11-20T07:10:22;133.30;;;54.70;;
57295;SDS011;43146;50.976;18.216;2022-11-20T07:12:49;115.20;;;46.40;;
57295;SDS011;43146;50.976;18.216;2022-11-20T07:15:16;119.10;;;52.40;;
57295;SDS011;43146;50.976;18.216;2022-11-20T07:17:42;108.60;;;46.20;;
57295;SDS011;43146;50.976;18.216;2022-11-20T07:20:08;115.30;;;49.50;;
57295;SDS011;43146;50.976;18.216;2022-11-20T07:22:33;131.30;;;51.00;;
57295;SDS011;43146;50.976;18.216;2022-11-20T07:24:59;119.30;;;47.90;;
57295;SDS011;43146;50.976;18.216;2022-11-20T07:27:24;114.60;;;49.30;;
57295;SDS011;43146;50.976;18.216;2022-11-20T07:29:50;122.50;;;47.40;;
57295;SDS011;43146;50.976;18.216;2022-11-20T07:32:16;119.90;;;49.80;;
57295;SDS011;43146;50.976;18.216;2022-11-20T07:34:41;117.90;;;50.50;;
57295;SDS011;43146;50.976;18.216;2022-11-20T07:37:07;135.40;;;51.70;;
57295;SDS011;43146;50.976;18.216;2022-11-20T07:39:32;151.40;;;66.00;;
57295;SDS011;43146;50.976;18.216;2022-11-20T07:41:58;204.10;;;84.70;;
57295;SDS011;43146;50.976;18.216;2022-11-20T07:44:23;493.90;;;228.60;;
57295;SDS011;43146;50.976;18.216;2022-11-20T07:46:49;134.70;;;56.00;;
57295;SDS011;43146;50.976;18.216;2022-11-20T07:49:14;180.70;;;73.80;;
57295;SDS011;43146;50.976;18.216;2022-11-20T07:51:40;177.00;;;77.20;;
57295;SDS011;43146;50.976;18.216;2022-11-20T07:54:05;176.90;;;83.10;;
57295;SDS011;43146;50.976;18.216;2022-11-20T07:56:31;130.40;;;55.50;;
57295;SDS011;43146;50.976;18.216;2022-11-20T07:58:56;163.60;;;69.20;;
57295;SDS011;43146;50.976;18.216;2022-11-20T08:01:23;134.20;;;54.30;;
57295;SDS011;43146;50.976;18.216;2022-11-20T08:03:48;120.30;;;51.50;;
57295;SDS011;43146;50.976;18.216;2022-11-20T08:06:14;116.40;;;47.10;;
57295;SDS011;43146;50.976;18.216;2022-11-20T08:08:40;113.00;;;48.50;;
57295;SDS011;43146;50.976;18.216;2022-11-20T08:11:05;121.60;;;48.70;;
57295;SDS011;43146;50.976;18.216;2022-11-20T08:13:49;117.40;;;53.60;;
57295;SDS011;43146;50.976;18.216;2022-11-20T08:16:34;111.50;;;50.30;;
57295;SDS011;43146;50.976;18.216;2022-11-20T08:18:59;116.10;;;50.60;;
57295;SDS011;43146;50.976;18.216;2022-11-20T08:21:25;113.50;;;50.50;;
57295;SDS011;43146;50.976;18.216;2022-11-20T08:23:50;114.80;;;49.40;;
57295;SDS011;43146;50.976;18.216;2022-11-20T08:26:16;112.70;;;52.30;;
57295;SDS011;43146;50.976;18.216;2022-11-20T08:28:41;128.50;;;57.90;;
57295;SDS011;43146;50.976;18.216;2022-11-20T08:31:07;109.70;;;53.40;;
57295;SDS011;43146;50.976;18.216;2022-11-20T08:33:33;113.50;;;52.80;;
57295;SDS011;43146;50.976;18.216;2022-11-20T08:35:59;121.10;;;55.70;;
57295;SDS011;43146;50.976;18.216;2022-11-20T08:38:26;105.50;;;49.10;;
57295;SDS011;43146;50.976;18.216;2022-11-20T08:40:51;121.20;;;57.60;;
57295;SDS011;43146;50.976;18.216;2022-11-20T08:43:36;114.10;;;54.40;;
57295;SDS011;43146;50.976;18.216;2022-11-20T08:46:01;104.20;;;52.00;;
57295;SDS011;43146;50.976;18.216;2022-11-20T08:48:27;138.60;;;65.10;;
57295;SDS011;43146;50.976;18.216;2022-11-20T08:50:52;112.10;;;53.20;;
57295;SDS011;43146;50.976;18.216;2022-11-20T08:53:18;111.70;;;53.10;;
57295;SDS011;43146;50.976;18.216;2022-11-20T08:55:44;131.90;;;76.80;;
57295;SDS011;43146;50.976;18.216;2022-11-20T08:58:09;127.80;;;57.70;;
57295;SDS011;43146;50.976;18.216;2022-11-20T09:00:35;127.80;;;63.20;;
57295;SDS011;43146;50.976;18.216;2022-11-20T09:03:01;109.20;;;53.30;;
57295;SDS011;43146;50.976;18.216;2022-11-20T09:05:27;119.60;;;55.90;;
57295;SDS011;43146;50.976;18.216;2022-11-20T09:07:56;112.10;;;54.60;;
57295;SDS011;43146;50.976;18.216;2022-11-20T09:10:22;115.00;;;50.70;;
57295;SDS011;43146;50.976;18.216;2022-11-20T09:12:48;119.60;;;55.40;;
57295;SDS011;43146;50.976;18.216;2022-11-20T09:15:14;133.10;;;62.10;;
57295;SDS011;43146;50.976;18.216;2022-11-20T09:17:40;119.40;;;59.90;;
57295;SDS011;43146;50.976;18.216;2022-11-20T09:20:06;193.50;;;81.10;;
57295;SDS011;43146;50.976;18.216;2022-11-20T09:22:32;163.50;;;77.80;;
57295;SDS011;43146;50.976;18.216;2022-11-20T09:24:58;131.80;;;62.70;;
57295;SDS011;43146;50.976;18.216;2022-11-20T09:27:23;100.40;;;50.90;;
57295;SDS011;43146;50.976;18.216;2022-11-20T09:29:49;99.20;;;50.50;;
57295;SDS011;43146;50.976;18.216;2022-11-20T09:32:14;118.10;;;60.00;;
57295;SDS011;43146;50.976;18.216;2022-11-20T09:34:40;167.00;;;76.30;;
57295;SDS011;43146;50.976;18.216;2022-11-20T09:37:05;350.90;;;138.80;;
57295;SDS011;43146;50.976;18.216;2022-11-20T09:39:31;100.70;;;52.00;;
57295;SDS011;43146;50.976;18.216;2022-11-20T09:47:15;93.50;;;43.90;;
57295;SDS011;43146;50.976;18.216;2022-11-20T09:55:50;82.80;;;41.50;;
57295;SDS011;43146;50.976;18.216;2022-11-20T09:58:21;82.50;;;40.10;;
57295;SDS011;43146;50.976;18.216;2022-11-20T10:00:56;91.70;;;42.50;;
57295;SDS011;43146;50.976;18.216;2022-11-20T10:04:00;77.50;;;38.00;;
57295;SDS011;43146;50.976;18.216;2022-11-20T10:06:31;81.00;;;39.50;;
57295;SDS011;43146;50.976;18.216;2022-11-20T10:11:42;84.40;;;41.40;;
57295;SDS011;43146;50.976;18.216;2022-11-20T10:16:53;86.40;;;42.40;;
57295;SDS011;43146;50.976;18.216;2022-11-20T10:19:28;79.00;;;38.80;;
57295;SDS011;43146;50.976;18.216;2022-11-20T10:25:04;59.10;;;28.40;;
57295;SDS011;43146;50.976;18.216;2022-11-20T10:30:22;71.60;;;37.80;;
57295;SDS011;43146;50.976;18.216;2022-11-20T10:33:03;49.50;;;25.50;;
57295;SDS011;43146;50.976;18.216;2022-11-20T10:38:02;46.00;;;24.10;;
57295;SDS011;43146;50.976;18.216;2022-11-20T10:40:33;48.90;;;24.70;;
57295;SDS011;43146;50.976;18.216;2022-11-20T10:43:02;58.30;;;27.30;;
57295;SDS011;43146;50.976;18.216;2022-11-20T10:56:31;45.70;;;25.00;;
57295;SDS011;43146;50.976;18.216;2022-11-20T10:59:21;90.60;;;51.20;;
57295;SDS011;43146;50.976;18.216;2022-11-20T11:08:03;108.20;;;61.10;;
57295;SDS011;43146;50.976;18.216;2022-11-20T11:10:41;90.50;;;40.00;;
57295;SDS011;43146;50.976;18.216;2022-11-20T11:13:24;56.00;;;28.90;;
57295;SDS011;43146;50.976;18.216;2022-11-20T11:15:51;62.60;;;31.10;;
57295;SDS011;43146;50.976;18.216;2022-11-20T11:18:31;60.00;;;28.60;;
57295;SDS011;43146;50.976;18.216;2022-11-20T11:21:02;66.70;;;26.90;;
57295;SDS011;43146;50.976;18.216;2022-11-20T11:25:57;51.10;;;25.50;;
57295;SDS011;43146;50.976;18.216;2022-11-20T11:28:27;56.40;;;28.50;;
57295;SDS011;43146;50.976;18.216;2022-11-20T11:30:53;49.60;;;24.90;;
57295;SDS011;43146;50.976;18.216;2022-11-20T11:33:22;88.00;;;51.20;;
57295;SDS011;43146;50.976;18.216;2022-11-20T11:35:50;100.20;;;52.40;;
57295;SDS011;43146;50.976;18.216;2022-11-20T11:38:37;45.50;;;23.50;;
57295;SDS011;43146;50.976;18.216;2022-11-20T11:41:06;78.00;;;38.10;;
57295;SDS011;43146;50.976;18.216;2022-11-20T11:43:35;83.80;;;41.10;;
57295;SDS011;43146;50.976;18.216;2022-11-20T11:57:12;60.90;;;29.90;;
57295;SDS011;43146;50.976;18.216;2022-11-20T12:00:03;102.30;;;51.50;;
57295;SDS011;43146;50.976;18.216;2022-11-20T12:05:20;48.00;;;23.90;;
57295;SDS011;43146;50.976;18.216;2022-11-20T12:13:01;45.00;;;20.50;;
57295;SDS011;43146;50.976;18.216;2022-11-20T12:15:31;46.00;;;25.50;;
57295;SDS011;43146;50.976;18.216;2022-11-20T12:17:58;42.40;;;22.70;;
57295;SDS011;43146;50.976;18.216;2022-11-20T12:20:35;41.40;;;21.50;;
57295;SDS011;43146;50.976;18.216;2022-11-20T12:23:10;47.20;;;23.00;;
57295;SDS011;43146;50.976;18.216;2022-11-20T12:25:42;41.70;;;19.90;;
57295;SDS011;43146;50.976;18.216;2022-11-20T12:31:04;49.70;;;23.10;;
57295;SDS011;43146;50.976;18.216;2022-11-20T12:33:55;48.10;;;24.20;;
57295;SDS011;43146;50.976;18.216;2022-11-20T12:36:40;62.20;;;30.90;;
57295;SDS011;43146;50.976;18.216;2022-11-20T12:39:17;56.30;;;26.30;;
57295;SDS011;43146;50.976;18.216;2022-11-20T12:52:56;174.50;;;70.30;;
57295;SDS011;43146;50.976;18.216;2022-11-20T12:55:45;53.80;;;27.80;;
57295;SDS011;43146;50.976;18.216;2022-11-20T13:01:21;58.70;;;27.40;;
57295;SDS011;43146;50.976;18.216;2022-11-20T13:06:48;64.90;;;27.70;;
57295;SDS011;43146;50.976;18.216;2022-11-20T13:09:15;75.50;;;34.40;;
57295;SDS011;43146;50.976;18.216;2022-11-20T13:11:51;70.60;;;31.10;;
57295;SDS011;43146;50.976;18.216;2022-11-20T13:17:10;54.50;;;26.00;;
57295;SDS011;43146;50.976;18.216;2022-11-20T13:19:40;67.90;;;31.10;;
57295;SDS011;43146;50.976;18.216;2022-11-20T13:22:07;95.40;;;40.90;;
57295;SDS011;43146;50.976;18.216;2022-11-20T13:24:33;79.70;;;39.80;;
57295;SDS011;43146;50.976;18.216;2022-11-20T13:27:03;69.10;;;35.80;;
57295;SDS011;43146;50.976;18.216;2022-11-20T13:29:31;85.00;;;37.60;;
57295;SDS011;43146;50.976;18.216;2022-11-20T13:34:38;107.60;;;46.70;;
57295;SDS011;43146;50.976;18.216;2022-11-20T13:37:04;82.80;;;33.90;;
57295;SDS011;43146;50.976;18.216;2022-11-20T13:39:34;73.60;;;34.30;;
57295;SDS011;43146;50.976;18.216;2022-11-20T13:42:02;87.10;;;39.20;;
57295;SDS011;43146;50.976;18.216;2022-11-20T13:44:54;82.50;;;36.00;;
57295;SDS011;43146;50.976;18.216;2022-11-20T13:47:24;78.40;;;35.90;;
57295;SDS011;43146;50.976;18.216;2022-11-20T13:49:53;95.90;;;43.90;;
57295;SDS011;43146;50.976;18.216;2022-11-20T13:57:49;84.20;;;36.00;;
57295;SDS011;43146;50.976;18.216;2022-11-20T14:00:22;101.00;;;41.60;;
57295;SDS011;43146;50.976;18.216;2022-11-20T14:03:00;72.60;;;34.30;;
57295;SDS011;43146;50.976;18.216;2022-11-20T14:05:35;70.50;;;34.30;;
57295;SDS011;43146;50.976;18.216;2022-11-20T14:08:03;80.00;;;36.20;;
57295;SDS011;43146;50.976;18.216;2022-11-20T14:10:31;71.60;;;34.50;;
57295;SDS011;43146;50.976;18.216;2022-11-20T14:12:56;76.00;;;34.80;;
57295;SDS011;43146;50.976;18.216;2022-11-20T14:15:29;76.90;;;34.70;;
57295;SDS011;43146;50.976;18.216;2022-11-20T14:17:56;84.60;;;37.70;;
57295;SDS011;43146;50.976;18.216;2022-11-20T14:20:23;73.40;;;33.60;;
57295;SDS011;43146;50.976;18.216;2022-11-20T14:22:51;169.70;;;54.10;;
57295;SDS011;43146;50.976;18.216;2022-11-20T14:25:19;203.50;;;59.50;;
57295;SDS011;43146;50.976;18.216;2022-11-20T14:27:52;105.70;;;41.40;;
57295;SDS011;43146;50.976;18.216;2022-11-20T14:30:20;101.60;;;37.60;;
57295;SDS011;43146;50.976;18.216;2022-11-20T14:32:48;142.10;;;49.80;;
57295;SDS011;43146;50.976;18.216;2022-11-20T14:35:17;75.80;;;32.60;;
57295;SDS011;43146;50.976;18.216;2022-11-20T14:38:01;100.20;;;43.30;;
57295;SDS011;43146;50.976;18.216;2022-11-20T14:40:28;112.60;;;47.20;;
57295;SDS011;43146;50.976;18.216;2022-11-20T14:42:56;112.50;;;45.90;;
57295;SDS011;43146;50.976;18.216;2022-11-20T14:45:22;95.20;;;38.90;;
57295;SDS011;43146;50.976;18.216;2022-11-20T14:47:49;106.60;;;46.60;;
57295;SDS011;43146;50.976;18.216;2022-11-20T14:50:34;105.80;;;43.40;;
57295;SDS011;43146;50.976;18.216;2022-11-20T14:53:00;85.10;;;34.60;;
57295;SDS011;43146;50.976;18.216;2022-11-20T14:55:33;89.60;;;35.30;;
57295;SDS011;43146;50.976;18.216;2022-11-20T14:58:02;85.30;;;34.80;;
57295;SDS011;43146;50.976;18.216;2022-11-20T15:00:29;90.10;;;37.70;;
57295;SDS011;43146;50.976;18.216;2022-11-20T15:02:57;94.30;;;41.40;;
57295;SDS011;43146;50.976;18.216;2022-11-20T15:05:37;86.50;;;38.90;;
57295;SDS011;43146;50.976;18.216;2022-11-20T15:08:15;95.50;;;42.60;;
57295;SDS011;43146;50.976;18.216;2022-11-20T15:10:45;101.30;;;40.90;;
57295;SDS011;43146;50.976;18.216;2022-11-20T15:13:12;100.50;;;41.70;;
57295;SDS011;43146;50.976;18.216;2022-11-20T15:15:48;87.30;;;38.80;;
57295;SDS011;43146;50.976;18.216;2022-11-20T15:18:16;91.30;;;38.00;;
57295;SDS011;43146;50.976;18.216;2022-11-20T15:23:16;152.10;;;60.60;;
57295;SDS011;43146;50.976;18.216;2022-11-20T15:25:46;156.10;;;68.50;;
57295;SDS011;43146;50.976;18.216;2022-11-20T15:28:20;139.40;;;59.30;;
57295;SDS011;43146;50.976;18.216;2022-11-20T15:31:06;144.40;;;54.10;;
57295;SDS011;43146;50.976;18.216;2022-11-20T15:33:32;156.70;;;61.00;;
57295;SDS011;43146;50.976;18.216;2022-11-20T15:35:58;97.30;;;38.30;;
57295;SDS011;43146;50.976;18.216;2022-11-20T15:38:24;110.10;;;40.70;;
57295;SDS011;43146;50.976;18.216;2022-11-20T15:40:50;123.40;;;44.90;;
57295;SDS011;43146;50.976;18.216;2022-11-20T15:43:15;78.20;;;31.30;;
57295;SDS011;43146;50.976;18.216;2022-11-20T15:45:45;88.50;;;32.80;;
57295;SDS011;43146;50.976;18.216;2022-11-20T15:50:46;78.90;;;32.80;;
57295;SDS011;43146;50.976;18.216;2022-11-20T15:53:16;84.50;;;34.30;;
57295;SDS011;43146;50.976;18.216;2022-11-20T15:55:42;101.90;;;40.70;;
57295;SDS011;43146;50.976;18.216;2022-11-20T15:58:08;78.80;;;33.80;;